Time;durP1;ratioP1;P1;durP2;ratioP2;P2;SDS_P1;SDS_P2;PMS_P1;PMS_P2;Temp;Humidity;BMP_temperature;BMP_pressure;BME280_temperature;BME280_humidity;BME280_pressure;Samples;Min_cycle;Max_cycle;Signal;HPM_P1;HPM_P2
2021/07/13 00:04:56;;;;;;;12.38;9.00;;;;;;;19.82;72.58;98698.73;263037;1095;114827;-70
2021/07/13 00:10:01;;;;;;;17.30;12.63;;;;;;;19.78;72.24;98691.98;263233;1094;115266;-71
2021/07/13 00:15:18;;;;;;;18.15;12.83;;;;;;;19.80;72.54;98691.80;262005;1095;115172;-71
2021/07/13 00:20:23;;;;;;;24.20;13.73;;;;;;;19.88;72.49;98691.85;263233;1096;114884;-71
2021/07/13 00:25:29;;;;;;;25.23;15.50;;;;;;;19.89;72.26;98679.19;263233;1096;115121;-69
2021/07/13 00:30:34;;;;;;;25.75;15.80;;;;;;;19.80;71.92;98675.59;262522;1093;115104;-70
2021/07/13 00:35:38;;;;;;;19.33;14.13;;;;;;;19.68;71.54;98661.55;263230;1093;115404;-67
2021/07/13 00:40:42;;;;;;;23.23;15.65;;;;;;;19.73;72.09;98659.20;262819;1093;115017;-68
2021/07/13 00:45:46;;;;;;;34.13;19.83;;;;;;;19.71;72.06;98646.89;263224;1095;115922;-70
2021/07/13 00:50:53;;;;;;;29.88;19.13;;;;;;;19.63;72.01;98655.78;263137;1095;115098;-66
2021/07/13 00:55:57;;;;;;;35.90;21.53;;;;;;;19.56;71.95;98652.01;263031;1096;116481;-72
2021/07/13 01:01:01;;;;;;;38.13;21.35;;;;;;;19.52;71.82;98656.88;263150;1096;114969;-70
2021/07/13 01:06:06;;;;;;;;;;;;;;;19.45;71.65;98658.55;263061;1093;115555;-69
2021/07/13 01:11:31;;;;;;;32.07;20.07;;;;;;;19.40;71.91;98666.29;263213;1095;100972;-66
2021/07/13 01:16:42;;;;;;;24.30;16.18;;;;;;;19.45;72.37;98658.55;263193;1095;114952;-71
2021/07/13 01:22:01;;;;;;;25.33;17.40;;;;;;;19.53;72.60;98645.11;263111;1096;114989;-68
2021/07/13 01:27:37;;;;;;;28.35;18.00;;;;;;;19.49;71.86;98648.27;263145;1095;115343;-68
2021/07/13 01:32:46;;;;;;;26.70;17.67;;;;;;;19.40;72.08;98631.20;263135;1095;114867;-68
2021/07/13 01:37:52;;;;;;;24.17;16.97;;;;;;;19.34;72.00;98626.45;262746;1096;115761;-66
2021/07/13 01:42:59;;;;;;;26.17;17.13;;;;;;;19.32;72.30;98637.38;263068;1095;117296;-67
2021/07/13 01:48:04;;;;;;;27.37;18.83;;;;;;;19.30;71.85;98636.72;263190;1095;115872;-68
2021/07/13 01:53:11;;;;;;;28.65;19.15;;;;;;;19.27;71.89;98633.50;262536;1093;114936;-66
2021/07/13 01:58:18;;;;;;;27.05;18.70;;;;;;;19.24;72.16;98633.81;262483;1094;115011;-66
2021/07/13 02:03:27;;;;;;;25.00;17.60;;;;;;;19.17;72.17;98640.86;262425;1095;115059;-65
2021/07/13 02:08:36;;;;;;;27.87;17.43;;;;;;;19.15;72.47;98649.09;263240;1094;115482;-67
2021/07/13 02:13:41;;;;;;;34.33;19.83;;;;;;;19.16;72.73;98634.63;262751;1095;114504;-70
2021/07/13 02:18:47;;;;;;;32.23;21.33;;;;;;;19.19;72.55;98645.09;262064;1094;114861;-69
2021/07/13 02:23:52;;;;;;;30.10;20.27;;;;;;;19.22;72.35;98655.54;261368;1096;114947;-69
2021/07/13 02:29:05;;;;;;;28.37;20.53;;;;;;;19.26;72.83;98647.97;261892;1096;115062;-67
2021/07/13 02:34:13;;;;;;;32.67;22.07;;;;;;;19.32;72.84;98642.78;263224;1095;117654;-72
2021/07/13 02:39:20;;;;;;;32.17;22.63;;;;;;;19.34;72.80;98648.03;262206;1095;115392;-74
2021/07/13 02:44:28;;;;;;;29.30;20.83;;;;;;;19.33;72.59;98652.59;263035;1095;116033;-68
2021/07/13 02:49:37;;;;;;;27.03;20.53;;;;;;;19.34;72.92;98653.44;263242;1096;114677;-68
2021/07/13 02:54:42;;;;;;;30.83;21.83;;;;;;;19.41;73.01;98653.64;263019;1096;114891;-68
2021/07/13 02:59:47;;;;;;;32.28;23.38;;;;;;;19.47;73.21;98656.54;263263;1094;115005;-68
2021/07/13 03:04:53;;;;;;;31.60;21.93;;;;;;;19.51;73.12;98651.66;262259;1093;115263;-67
2021/07/13 03:09:58;;;;;;;28.38;22.13;;;;;;;19.57;72.98;98651.02;263031;1096;114837;-70
2021/07/13 03:15:07;;;;;;;32.50;25.60;;;;;;;19.61;73.08;98646.98;263163;1093;117857;-66
2021/07/13 03:20:12;;;;;;;38.70;27.20;;;;;;;19.63;73.12;98655.78;263261;1095;114701;-72
2021/07/13 03:25:24;;;;;;;33.43;24.70;;;;;;;19.67;73.13;98645.53;263182;1096;114565;-70
2021/07/13 03:30:30;;;;;;;35.17;26.00;;;;;;;19.73;73.46;98648.40;262982;1096;115123;-72
2021/07/13 03:35:34;;;;;;;36.18;26.80;;;;;;;19.79;73.42;98636.95;263282;1093;114948;-71
2021/07/13 03:40:45;;;;;;;40.23;28.97;;;;;;;19.81;73.30;98644.91;263135;1093;115085;-70
2021/07/13 03:45:49;;;;;;;35.57;25.63;;;;;;;19.85;73.32;98643.56;263166;1096;114857;-72
2021/07/13 03:50:53;;;;;;;33.78;24.58;;;;;;;19.90;73.27;98643.05;263248;1093;114896;-67
2021/07/13 03:55:57;;;;;;;32.93;25.33;;;;;;;19.91;73.29;98642.07;263161;1093;114809;-66
2021/07/13 04:01:00;;;;;;;32.75;23.95;;;;;;;19.93;73.29;98638.17;263110;1095;114904;-67
2021/07/13 04:06:04;;;;;;;33.38;23.35;;;;;;;19.95;73.21;98636.16;263216;1093;114925;-66
2021/07/13 04:11:07;;;;;;;30.88;22.25;;;;;;;19.99;73.34;98642.08;263277;1094;114896;-74
2021/07/13 04:16:11;;;;;;;29.68;21.65;;;;;;;20.03;73.34;98638.03;263253;1095;114796;-66
2021/07/13 04:21:15;;;;;;;31.95;23.45;;;;;;;20.05;73.18;98639.56;263155;1095;115578;-65
2021/07/13 04:26:19;;;;;;;28.88;21.77;;;;;;;20.07;73.39;98639.39;262942;1095;115517;-72
2021/07/13 04:31:23;;;;;;;28.33;19.40;;;;;;;20.11;73.37;98643.47;263237;1095;115210;-66
2021/07/13 04:36:27;;;;;;;34.70;21.05;;;;;;;20.17;73.39;98640.08;263222;1095;114896;-72
2021/07/13 04:41:30;;;;;;;27.90;20.65;;;;;;;20.21;73.44;98644.17;263278;1096;114733;-70
2021/07/13 04:46:34;;;;;;;29.70;18.53;;;;;;;20.24;73.27;98638.41;263182;1095;114899;-67
2021/07/13 04:51:38;;;;;;;26.10;17.05;;;;;;;20.31;73.46;98633.17;263199;1096;115426;-66
2021/07/13 04:56:42;;;;;;;22.43;16.20;;;;;;;20.36;73.47;98628.13;263156;1096;115613;-70
2021/07/13 05:01:45;;;;;;;21.35;16.70;;;;;;;20.40;73.25;98624.07;263031;1095;115227;-67
2021/07/13 05:06:50;;;;;;;20.73;15.97;;;;;;;20.39;73.04;98632.36;263008;1096;114813;-72
2021/07/13 05:11:54;;;;;;;20.60;16.08;;;;;;;20.41;73.13;98633.86;263204;1095;117268;-69
2021/07/13 05:16:58;;;;;;;22.70;16.80;;;;;;;20.50;73.51;98641.00;263173;1094;115259;-67
2021/07/13 05:22:05;;;;;;;22.35;17.18;;;;;;;20.52;73.16;98633.59;263253;1095;115514;-68
2021/07/13 05:27:11;;;;;;;23.63;16.13;;;;;;;20.54;73.17;98633.40;263041;1095;115567;-67
2021/07/13 05:32:15;;;;;;;27.27;19.03;;;;;;;20.59;73.04;98631.05;263089;1096;115455;-74
2021/07/13 05:37:19;;;;;;;26.60;18.88;;;;;;;20.63;72.86;98629.70;263135;1095;115278;-68
2021/07/13 05:42:23;;;;;;;22.43;18.75;;;;;;;20.66;72.93;98639.34;263228;1095;114916;-67
2021/07/13 05:47:26;;;;;;;24.58;18.55;;;;;;;20.68;72.95;98632.72;263097;1095;115298;-71
2021/07/13 05:52:33;;;;;;;17.87;14.67;;;;;;;20.80;73.24;98633.23;263236;1095;115149;-64
2021/07/13 05:57:36;;;;;;;25.13;20.93;;;;;;;21.08;73.51;98630.16;263203;1095;114926;-68
2021/07/13 06:02:40;;;;;;;27.93;18.68;;;;;;;21.32;73.65;98630.09;262971;1096;114987;-64
2021/07/13 06:07:48;;;;;;;47.65;32.13;;;;;;;21.55;73.03;98629.38;262975;1095;115512;-73
2021/07/13 06:12:52;;;;;;;45.97;32.67;;;;;;;21.72;72.84;98631.83;263167;1096;115574;-66
2021/07/13 06:17:56;;;;;;;37.95;30.55;;;;;;;21.86;72.58;98616.69;263077;1096;115534;-72
2021/07/13 06:23:00;;;;;;;105.97;83.33;;;;;;;21.91;72.04;98617.02;263034;1096;115826;-65
2021/07/13 06:28:04;;;;;;;37.08;26.50;;;;;;;21.93;71.89;98611.41;263156;1096;115232;-68
2021/07/13 06:33:08;;;;;;;34.58;24.40;;;;;;;21.99;71.76;98609.86;262703;1095;116078;-68
2021/07/13 06:38:11;;;;;;;69.08;57.20;;;;;;;22.05;71.92;98615.41;263226;1095;116100;-67
2021/07/13 06:43:15;;;;;;;30.78;23.65;;;;;;;22.10;71.51;98618.41;263230;1093;115124;-70
2021/07/13 06:48:20;;;;;;;38.50;27.43;;;;;;;22.16;71.74;98606.05;263153;1096;115222;-70
2021/07/13 06:53:24;;;;;;;29.63;22.55;;;;;;;22.30;71.66;98597.13;263161;1095;115185;-69
2021/07/13 06:58:27;;;;;;;28.90;21.93;;;;;;;22.41;71.84;98593.15;263164;1095;116060;-69
2021/07/13 07:03:31;;;;;;;27.10;20.88;;;;;;;22.51;71.63;98588.32;263276;1096;115184;-70
2021/07/13 07:08:36;;;;;;;24.68;19.08;;;;;;;22.55;71.36;98589.63;261408;1095;114941;-70
2021/07/13 07:13:49;;;;;;;154.93;131.45;;;;;;;22.60;71.40;98598.08;261271;1095;115125;-69
2021/07/13 07:19:01;;;;;;;37.90;25.87;;;;;;;22.70;71.36;98597.83;261360;1094;115244;-69
2021/07/13 07:24:11;;;;;;;37.03;26.50;;;;;;;22.77;71.02;98593.35;261635;1091;115197;-67
2021/07/13 07:29:18;;;;;;;89.33;67.33;;;;;;;22.86;70.98;98585.95;260943;1096;115053;-68
2021/07/13 07:34:25;;;;;;;42.43;30.23;;;;;;;22.92;70.94;98579.80;261282;1095;116328;-68
2021/07/13 07:39:43;;;;;;;36.40;23.93;;;;;;;22.98;70.99;98584.52;260894;1095;116127;-67
2021/07/13 07:44:50;;;;;;;27.40;22.33;;;;;;;23.03;70.81;98594.81;260931;1095;117062;-68
2021/07/13 07:49:58;;;;;;;29.05;23.30;;;;;;;23.06;70.73;98592.59;261676;1095;116124;-68
2021/07/13 07:55:05;;;;;;;31.30;24.37;;;;;;;23.09;70.95;98586.77;262599;1096;114992;-70
2021/07/13 08:00:14;;;;;;;29.77;21.30;;;;;;;23.12;70.58;98585.56;261170;1095;114995;-69
2021/07/13 08:05:30;;;;;;;24.97;18.70;;;;;;;23.17;70.47;98576.88;261375;1096;114695;-68
2021/07/13 08:10:40;;;;;;;26.97;20.67;;;;;;;23.19;70.25;98578.34;260871;1095;116561;-68
2021/07/13 08:15:57;;;;;;;32.20;24.23;;;;;;;23.23;70.28;98579.66;260969;1095;115224;-69
2021/07/13 08:21:06;;;;;;;28.60;24.00;;;;;;;23.25;70.12;98591.18;260989;1093;116215;-69
2021/07/13 08:26:11;;;;;;;24.83;20.33;;;;;;;23.28;69.96;98589.97;261047;1095;115524;-69
2021/07/13 08:31:19;;;;;;;21.60;17.13;;;;;;;23.30;70.11;98594.20;262059;1095;116220;-71
2021/07/13 08:36:23;;;;;;;21.67;18.73;;;;;;;23.34;70.10;98600.93;263004;1094;116006;-69
2021/07/13 08:41:30;;;;;;;23.35;17.95;;;;;;;23.39;69.72;98597.64;262461;1095;116247;-68
2021/07/13 08:46:37;;;;;;;21.77;18.13;;;;;;;23.41;69.70;98589.33;263034;1095;115708;-68
2021/07/13 08:51:43;;;;;;;21.00;16.93;;;;;;;23.43;69.79;98589.95;263016;1095;116390;-69
2021/07/13 08:56:47;;;;;;;21.53;15.93;;;;;;;23.47;69.82;98593.98;263005;1096;115582;-69
2021/07/13 09:01:51;;;;;;;21.20;16.43;;;;;;;23.52;69.22;98592.39;262917;1095;115697;-71
2021/07/13 09:06:57;;;;;;;91.58;26.33;;;;;;;23.57;69.71;98587.25;262622;1096;115343;-68
2021/07/13 09:12:40;;;;;;;44.27;25.30;;;;;;;23.61;69.77;98585.83;262139;1096;115788;-69
2021/07/13 09:17:50;;;;;;;21.50;17.53;;;;;;;23.65;69.55;98585.45;261065;1093;115564;-69
2021/07/13 09:23:04;;;;;;;17.67;15.77;;;;;;;23.72;69.53;98580.97;261039;1095;116346;-67
2021/07/13 09:28:19;;;;;;;17.40;15.60;;;;;;;23.76;69.57;98572.23;262128;1095;116532;-70
2021/07/13 09:33:25;;;;;;;20.08;16.08;;;;;;;23.81;69.36;98575.23;263003;1095;115399;-73
2021/07/13 09:38:31;;;;;;;20.60;14.17;;;;;;;23.83;69.22;98583.19;262227;1095;116775;-71
2021/07/13 09:43:53;;;;;;;21.83;15.33;;;;;;;23.90;69.01;98585.98;262801;1096;115364;-68
2021/07/13 09:49:21;;;;;;;44.17;16.87;;;;;;;23.98;69.10;98585.85;261155;1095;116807;-70
2021/07/13 09:54:44;;;;;;;30.33;17.30;;;;;;;24.03;69.02;98576.09;260761;1096;116878;-68
2021/07/13 09:59:57;;;;;;;22.20;16.33;;;;;;;24.14;69.46;98572.02;263044;1096;115906;-70
2021/07/13 10:05:03;;;;;;;15.90;12.40;;;;;;;24.34;69.78;98557.78;262880;1096;115555;-69
2021/07/13 10:10:13;;;;;;;14.40;12.43;;;;;;;24.50;69.13;98569.27;262991;1095;115340;-69
2021/07/13 10:15:17;;;;;;;16.73;14.93;;;;;;;24.69;69.04;98556.84;263020;1093;115608;-68
2021/07/13 10:20:22;;;;;;;17.03;14.20;;;;;;;24.84;68.88;98555.93;262967;1094;115434;-68
2021/07/13 10:25:37;;;;;;;17.27;15.10;;;;;;;25.04;68.74;98559.63;263028;1096;115278;-69
2021/07/13 10:30:46;;;;;;;14.63;12.23;;;;;;;25.19;68.73;98560.37;263056;1095;115860;-69
2021/07/13 10:35:50;;;;;;;13.67;12.27;;;;;;;25.37;68.45;98550.81;262978;1095;115162;-68
2021/07/13 10:40:54;;;;;;;18.43;15.00;;;;;;;25.57;68.13;98548.19;262905;1096;115885;-68
2021/07/13 10:46:10;;;;;;;16.10;14.40;;;;;;;25.70;68.00;98543.63;263020;1096;115541;-70
2021/07/13 10:51:13;;;;;;;15.60;13.90;;;;;;;25.85;67.55;98540.78;262995;1095;115507;-68
2021/07/13 10:56:37;;;;;;;15.63;12.48;;;;;;;26.01;67.29;98539.55;263066;1095;114896;-70
2021/07/13 11:01:43;;;;;;;143.93;110.10;;;;;;;26.19;67.05;98530.79;262962;1096;115075;-67
2021/07/13 11:06:55;;;;;;;18.97;15.10;;;;;;;26.35;66.65;98530.36;262714;1096;115916;-68
2021/07/13 11:12:03;;;;;;;15.00;11.67;;;;;;;26.50;66.86;98521.18;263017;1096;115158;-67
2021/07/13 11:17:07;;;;;;;15.97;12.10;;;;;;;26.68;66.38;98531.45;262840;1095;116464;-68
2021/07/13 11:22:16;;;;;;;14.45;12.83;;;;;;;26.75;65.56;98535.84;263083;1095;115978;-69
2021/07/13 11:27:20;;;;;;;14.80;11.73;;;;;;;26.83;65.62;98512.94;263060;1095;114985;-68
2021/07/13 11:32:24;;;;;;;16.70;14.50;;;;;;;26.95;65.08;98511.24;262856;1095;115156;-68
2021/07/13 11:37:29;;;;;;;13.40;11.45;;;;;;;27.00;64.88;98495.04;263059;1096;117656;-68
2021/07/13 11:42:34;;;;;;;12.60;9.33;;;;;;;27.02;64.24;98501.14;262976;1095;115168;-67
2021/07/13 11:47:38;;;;;;;12.13;10.83;;;;;;;27.20;64.54;98491.45;263125;1096;114920;-68
2021/07/13 11:52:41;;;;;;;13.03;10.03;;;;;;;27.40;64.03;98489.48;263172;1095;115306;-69
2021/07/13 11:57:51;;;;;;;9.50;8.60;;;;;;;27.59;64.11;98483.08;263252;1095;116843;-69
2021/07/13 12:02:54;;;;;;;10.47;9.43;;;;;;;27.77;64.09;98487.84;262893;1095;115316;-69
2021/07/13 12:07:58;;;;;;;10.58;9.48;;;;;;;27.94;63.85;98477.22;263254;1096;114767;-70
2021/07/13 12:13:03;;;;;;;11.50;10.45;;;;;;;28.11;63.79;98469.31;263176;1092;115581;-70
2021/07/13 12:18:06;;;;;;;10.60;9.47;;;;;;;28.27;63.47;98467.94;263018;1095;115236;-69
2021/07/13 12:23:10;;;;;;;10.55;9.50;;;;;;;28.36;62.45;98455.63;263192;1095;115642;-69
2021/07/13 12:28:14;;;;;;;11.93;10.20;;;;;;;28.38;61.75;98453.52;263164;1095;115056;-67
2021/07/13 12:33:22;;;;;;;11.58;9.98;;;;;;;28.44;62.01;98463.61;262886;1096;115142;-67
2021/07/13 12:38:27;;;;;;;9.63;8.63;;;;;;;28.50;61.61;98459.14;263228;1093;114886;-69
2021/07/13 12:43:30;;;;;;;9.37;8.47;;;;;;;28.75;61.55;98456.36;263103;1095;114997;-68
2021/07/13 12:48:37;;;;;;;13.20;9.20;;;;;;;28.93;60.83;98450.88;263061;1095;114833;-69
2021/07/13 12:53:41;;;;;;;10.70;9.57;;;;;;;29.06;59.99;98449.09;262941;1096;115488;-66
2021/07/13 12:58:46;;;;;;;17.23;9.10;;;;;;;29.11;59.39;98447.35;263176;1093;115608;-71
2021/07/13 13:03:49;;;;;;;12.03;9.05;;;;;;;29.17;59.14;98431.88;263110;1093;116324;-72
2021/07/13 13:08:53;;;;;;;10.83;9.48;;;;;;;29.20;58.89;98428.67;263214;1095;115056;-71
2021/07/13 13:14:03;;;;;;;11.93;8.30;;;;;;;29.35;58.54;98428.26;263118;1095;115459;-71
2021/07/13 13:19:12;;;;;;;11.00;9.90;;;;;;;29.48;58.01;98406.14;263188;1096;115102;-69
2021/07/13 13:24:18;;;;;;;9.97;8.57;;;;;;;29.65;57.75;98411.84;263167;1096;115269;-73
2021/07/13 13:29:21;;;;;;;;;;;;;;;29.73;57.66;98402.47;263144;1095;115914;-69
2021/07/13 13:34:28;;;;;;;8.60;7.40;;;;;;;29.73;56.91;98395.06;262853;1096;102924;-71
2021/07/13 13:39:33;;;;;;;9.70;8.80;;;;;;;29.81;56.98;98391.14;263243;1096;115056;-68
2021/07/13 13:44:39;;;;;;;;;;;;;;;29.91;56.94;98396.89;263196;1095;116684;-70
2021/07/13 13:49:44;;;;;;;12.20;7.90;;;;;;;30.00;56.54;98386.42;263309;1096;101346;-69
2021/07/13 13:54:48;;;;;;;12.15;8.50;;;;;;;30.10;56.51;98375.69;263128;1095;116352;-70
2021/07/13 13:59:52;;;;;;;14.00;8.83;;;;;;;30.22;56.71;98371.05;263259;1096;114705;-72
2021/07/13 14:04:56;;;;;;;7.87;7.17;;;;;;;30.22;56.13;98361.98;263125;1096;115588;-74
2021/07/13 14:10:02;;;;;;;12.80;8.33;;;;;;;30.30;56.45;98354.23;263230;1095;115201;-72
2021/07/13 14:15:17;;;;;;;11.13;9.13;;;;;;;30.40;56.27;98354.47;263166;1093;115056;-70
2021/07/13 14:20:21;;;;;;;9.63;8.63;;;;;;;30.30;55.25;98364.36;263104;1096;114899;-73
2021/07/13 14:25:25;;;;;;;;;;;;;;;30.18;55.50;98345.16;263219;1096;115047;-69
2021/07/13 14:30:28;;;;;;;8.70;7.77;;;;;;;30.04;55.37;98346.44;263256;1095;101648;-69
2021/07/13 14:35:32;;;;;;;9.20;8.33;;;;;;;29.87;55.68;98352.63;263083;1095;115741;-72
2021/07/13 14:40:35;;;;;;;;;;;;;;;29.82;55.82;98351.66;262988;1096;114716;-72
2021/07/13 14:45:39;;;;;;;9.47;8.43;;;;;;;29.70;55.90;98357.13;262969;1096;101869;-69
2021/07/13 14:50:45;;;;;;;;;;;;;;;29.60;55.85;98354.13;263140;1095;115062;-73
2021/07/13 14:55:50;;;;;;;8.73;7.83;;;;;;;29.45;56.09;98349.89;263165;1095;101848;-71
2021/07/13 15:00:54;;;;;;;8.83;8.03;;;;;;;29.24;55.98;98347.65;263119;1095;115548;-71
2021/07/13 15:05:58;;;;;;;9.37;8.43;;;;;;;29.06;56.04;98347.70;263103;1096;114593;-69
2021/07/13 15:11:02;;;;;;;9.83;8.73;;;;;;;28.92;56.42;98347.02;263166;1094;115434;-71
2021/07/13 15:16:06;;;;;;;12.20;9.53;;;;;;;28.79;56.52;98330.74;263132;1095;115688;-71
2021/07/13 15:21:09;;;;;;;;;;;;;;;28.53;56.59;98329.98;263184;1096;114787;-71
2021/07/13 15:26:34;;;;;;;9.50;8.47;;;;;;;28.34;56.94;98329.13;263243;1094;101489;-69
2021/07/13 15:31:38;;;;;;;9.40;8.57;;;;;;;28.22;57.54;98319.98;263235;1095;114810;-73
2021/07/13 15:36:42;;;;;;;11.45;9.30;;;;;;;28.18;57.89;98310.55;263130;1096;115165;-72
2021/07/13 15:41:45;;;;;;;9.90;8.35;;;;;;;28.17;58.29;98306.16;263277;1096;114986;-70
2021/07/13 15:46:52;;;;;;;9.37;7.87;;;;;;;28.15;58.05;98295.42;263187;1096;115181;-69
2021/07/13 15:51:57;;;;;;;11.80;9.50;;;;;;;28.13;58.09;98296.73;262228;1095;114568;-71
2021/07/13 15:57:02;;;;;;;10.83;8.70;;;;;;;28.05;58.39;98284.16;261332;1096;116201;-72
2021/07/13 16:02:06;;;;;;;11.43;8.43;;;;;;;27.99;58.82;98293.27;263183;1095;115257;-73
2021/07/13 16:07:09;;;;;;;107.28;77.58;;;;;;;27.90;58.34;98286.44;262902;1096;115333;-70
2021/07/13 16:12:13;;;;;;;13.78;9.08;;;;;;;27.79;58.45;98296.22;262137;1096;116528;-72
2021/07/13 16:17:17;;;;;;;23.95;10.48;;;;;;;27.72;58.03;98289.94;262875;1096;115316;-68
2021/07/13 16:22:22;;;;;;;19.17;10.23;;;;;;;27.61;58.57;98283.27;263068;1096;116198;-74
2021/07/13 16:27:31;;;;;;;14.67;9.43;;;;;;;27.62;58.68;98284.14;263009;1095;115848;-69
2021/07/13 16:32:37;;;;;;;206.43;150.07;;;;;;;27.67;59.05;98276.92;263082;1096;115122;-73
2021/07/13 16:37:44;;;;;;;21.90;15.57;;;;;;;27.71;59.23;98275.41;263075;1095;116546;-69
2021/07/13 16:42:48;;;;;;;12.57;9.30;;;;;;;27.73;59.00;98294.34;262984;1095;115546;-68
2021/07/13 16:47:51;;;;;;;11.40;9.58;;;;;;;27.70;59.29;98292.05;263048;1095;115769;-73
2021/07/13 16:52:57;;;;;;;19.30;10.45;;;;;;;27.69;59.34;98296.68;261659;1095;114746;-74
2021/07/13 16:58:02;;;;;;;11.80;8.23;;;;;;;27.65;59.58;98300.06;263047;1095;115622;-69
2021/07/13 17:03:06;;;;;;;14.57;9.47;;;;;;;27.63;59.66;98297.56;263047;1096;115532;-67
2021/07/13 17:08:10;;;;;;;16.83;9.67;;;;;;;27.65;59.86;98298.20;262965;1094;115847;-67
2021/07/13 17:13:13;;;;;;;21.58;10.53;;;;;;;27.65;60.21;98305.53;263036;1095;115560;-66
2021/07/13 17:18:17;;;;;;;86.98;72.55;;;;;;;27.63;59.86;98310.41;262982;1095;115346;-68
2021/07/13 17:23:22;;;;;;;19.45;15.95;;;;;;;27.61;59.62;98310.61;263014;1095;116494;-67
2021/07/13 17:28:26;;;;;;;17.43;10.80;;;;;;;27.56;59.93;98308.56;263034;1095;115849;-68
2021/07/13 17:33:30;;;;;;;16.35;9.98;;;;;;;27.50;59.84;98303.97;263027;1095;116328;-68
2021/07/13 17:38:34;;;;;;;47.68;36.25;;;;;;;27.47;60.19;98312.61;262980;1095;116094;-69
2021/07/13 17:43:37;;;;;;;579.37;494.27;;;;;;;27.46;59.92;98324.62;262860;1095;116645;-71
2021/07/13 17:48:41;;;;;;;56.10;43.45;;;;;;;27.47;60.12;98323.55;263048;1095;116521;-69
2021/07/13 17:53:45;;;;;;;64.13;32.25;;;;;;;27.43;60.61;98321.48;263053;1095;115767;-70
2021/07/13 17:58:48;;;;;;;32.57;16.77;;;;;;;27.36;60.48;98338.77;263040;1095;115506;-68
2021/07/13 18:03:52;;;;;;;46.58;17.45;;;;;;;27.30;60.37;98328.70;263090;1096;116611;-67
2021/07/13 18:08:56;;;;;;;380.68;338.73;;;;;;;27.24;60.25;98326.02;262905;1095;115902;-67
2021/07/13 18:14:00;;;;;;;122.43;88.33;;;;;;;27.22;60.86;98339.08;262795;1095;116643;-67
2021/07/13 18:19:03;;;;;;;90.55;54.33;;;;;;;27.18;60.41;98351.51;262723;1095;116265;-68
2021/07/13 18:24:07;;;;;;;32.25;22.98;;;;;;;27.12;60.53;98356.77;263023;1095;115724;-68
2021/07/13 18:29:11;;;;;;;44.78;21.08;;;;;;;27.05;61.11;98355.94;263021;1095;115716;-64
2021/07/13 18:34:15;;;;;;;27.60;15.83;;;;;;;26.94;61.19;98363.99;262946;1096;116178;-70
2021/07/13 18:39:18;;;;;;;53.28;21.08;;;;;;;26.85;61.03;98368.84;263017;1095;116138;-67
2021/07/13 18:44:22;;;;;;;;;;;;;;;26.80;61.42;98363.19;263178;1095;115112;-66
2021/07/13 18:49:26;;;;;;;171.67;136.77;;;;;;;26.79;61.78;98366.98;263038;1096;101330;-68
2021/07/13 18:54:30;;;;;;;83.25;65.48;;;;;;;26.79;61.55;98369.70;263197;1095;115869;-69
2021/07/13 18:59:33;;;;;;;427.13;340.65;;;;;;;26.80;62.24;98368.64;263170;1095;114872;-69
2021/07/13 19:04:37;;;;;;;129.05;110.85;;;;;;;26.76;62.26;98384.62;262737;1094;115519;-67
2021/07/13 19:09:40;;;;;;;39.35;32.90;;;;;;;26.67;61.77;98377.73;263229;1096;115798;-65
2021/07/13 19:14:45;;;;;;;14.45;12.95;;;;;;;26.57;61.99;98388.27;263054;1095;115061;-66
2021/07/13 19:19:49;;;;;;;14.47;10.57;;;;;;;26.50;62.52;98381.99;263196;1095;115314;-66
2021/07/13 19:24:52;;;;;;;14.70;10.98;;;;;;;26.44;62.77;98391.83;263118;1096;115928;-67
2021/07/13 19:29:57;;;;;;;20.43;12.45;;;;;;;26.39;62.88;98391.61;263168;1095;115679;-64
2021/07/13 19:40:16;;;;;;;18.98;11.35;;;;;;;26.26;62.87;98388.94;263157;1096;115181;-66
2021/07/13 19:45:20;;;;;;;16.30;10.90;;;;;;;26.16;63.14;98390.19;263206;1095;115490;-66
2021/07/13 19:50:24;;;;;;;;;;;;;;;26.12;63.19;98388.94;263205;1095;115539;-65
2021/07/13 19:55:27;;;;;;;17.97;11.17;;;;;;;26.10;63.56;98392.92;263314;1095;101729;-68
2021/07/13 20:00:31;;;;;;;13.40;11.73;;;;;;;26.05;63.54;98390.80;263021;1095;115067;-67
2021/07/13 20:05:35;;;;;;;15.90;11.68;;;;;;;25.98;63.60;98392.70;263204;1094;115318;-67
2021/07/13 20:10:39;;;;;;;18.58;12.50;;;;;;;25.87;64.05;98393.34;263209;1096;115471;-67
2021/07/13 20:15:42;;;;;;;;;;;;;;;25.80;63.89;98398.78;263062;1094;115744;-68
2021/07/13 20:20:46;;;;;;;14.47;10.67;;;;;;;25.75;64.27;98378.61;263291;1095;101004;-68
2021/07/13 20:25:50;;;;;;;17.90;12.80;;;;;;;25.71;64.59;98384.50;263101;1095;115566;-69
2021/07/13 20:30:53;;;;;;;24.15;12.98;;;;;;;25.67;64.48;98372.31;263155;1096;115440;-65
2021/07/13 20:35:57;;;;;;;;;;;;;;;25.63;64.87;98370.22;263256;1095;117567;-67
2021/07/13 20:41:01;;;;;;;17.63;13.43;;;;;;;25.52;64.60;98377.13;262590;1094;102913;-66
2021/07/13 20:46:05;;;;;;;14.83;11.57;;;;;;;25.46;64.71;98375.23;263232;1095;115583;-68
2021/07/13 20:51:08;;;;;;;;;;;;;;;25.39;64.79;98377.94;262792;1094;116532;-67
2021/07/13 20:56:12;;;;;;;20.17;11.60;;;;;;;25.37;65.09;98387.36;263264;1095;101694;-65
2021/07/13 21:01:16;;;;;;;16.70;12.35;;;;;;;25.35;65.10;98382.13;263242;1095;115565;-66
2021/07/13 21:06:20;;;;;;;19.35;12.25;;;;;;;25.31;65.36;98383.59;263179;1095;115333;-68
2021/07/13 21:11:23;;;;;;;15.85;13.15;;;;;;;25.25;65.16;98385.24;262903;1095;115498;-66
2021/07/13 21:16:27;;;;;;;14.50;11.40;;;;;;;25.19;65.29;98393.39;262835;1094;115195;-66
2021/07/13 21:21:31;;;;;;;15.93;12.08;;;;;;;25.14;65.53;98404.08;263185;1095;115402;-67
2021/07/13 21:26:36;;;;;;;18.43;13.25;;;;;;;25.12;65.62;98411.59;263214;1096;115573;-65
2021/07/13 21:31:40;;;;;;;18.27;13.50;;;;;;;25.08;65.16;98423.91;263260;1096;115586;-65
2021/07/13 21:36:44;;;;;;;17.58;13.88;;;;;;;25.01;65.64;98424.72;263187;1095;115105;-66
2021/07/13 21:41:52;;;;;;;20.23;12.83;;;;;;;24.94;65.31;98431.19;263175;1094;115392;-67
2021/07/13 21:46:56;;;;;;;15.63;13.33;;;;;;;24.90;66.02;98427.19;263148;1095;115381;-65
2021/07/13 21:52:00;;;;;;;15.28;13.38;;;;;;;24.89;65.92;98426.33;263203;1095;115322;-68
2021/07/13 21:57:04;;;;;;;20.18;12.98;;;;;;;24.85;66.02;98427.78;263255;1095;115240;-67
2021/07/13 22:02:08;;;;;;;15.55;13.73;;;;;;;24.79;65.89;98428.58;262650;1095;115199;-64
2021/07/13 22:07:11;;;;;;;18.75;13.65;;;;;;;24.71;65.91;98424.15;263137;1096;115750;-67
2021/07/13 22:12:18;;;;;;;15.73;13.15;;;;;;;24.69;66.34;98419.94;263213;1094;115607;-67
2021/07/13 22:17:22;;;;;;;17.40;13.10;;;;;;;24.66;66.33;98426.65;263218;1095;114875;-68
2021/07/13 22:22:26;;;;;;;18.58;14.68;;;;;;;24.63;66.46;98420.77;263233;1094;114865;-66
2021/07/13 22:27:30;;;;;;;17.30;13.95;;;;;;;24.57;66.32;98418.84;263151;1096;115264;-64
2021/07/13 22:32:34;;;;;;;20.48;13.33;;;;;;;24.53;66.53;98412.96;263249;1095;115203;-66
2021/07/13 22:37:39;;;;;;;16.77;13.03;;;;;;;24.49;66.55;98422.53;262449;1094;115333;-67
2021/07/13 22:42:45;;;;;;;17.27;13.57;;;;;;;24.48;66.83;98429.86;263236;1095;114973;-66
2021/07/13 22:47:48;;;;;;;16.57;13.80;;;;;;;24.42;66.70;98427.96;263175;1094;115107;-67
2021/07/13 22:52:52;;;;;;;19.53;13.78;;;;;;;24.37;66.91;98429.55;263255;1095;114811;-70
2021/07/13 22:57:56;;;;;;;13.95;12.30;;;;;;;24.30;67.01;98424.91;263202;1095;116013;-65
2021/07/13 23:03:00;;;;;;;15.78;12.95;;;;;;;24.29;67.00;98433.27;263250;1094;114956;-68
2021/07/13 23:08:04;;;;;;;16.95;12.73;;;;;;;24.28;67.45;98437.84;263191;1095;115262;-67
2021/07/13 23:13:08;;;;;;;18.48;13.65;;;;;;;24.26;67.26;98442.66;263269;1095;115951;-67